Time;durP1;ratioP1;P1;durP2;ratioP2;P2;SDS_P1;SDS_P2;PMS_P1;PMS_P2;Temp;Humidity;BMP_temperature;BMP_pressure;BME280_temperature;BME280_humidity;BME280_pressure;Samples;Min_cycle;Max_cycle;Signal;HPM_P1;HPM_P2
2022/03/22 00:00:37;;;;;;;19.77;11.80;;;;;;;-1.82;62.51;94475.25;5011696;28;20054;-84
2022/03/22 00:03:04;;;;;;;21.80;12.55;;;;;;;-1.54;61.51;94486.00;5011866;28;20046;-84
2022/03/22 00:05:31;;;;;;;17.95;11.20;;;;;;;-1.45;61.41;94481.25;5011785;28;20054;-84
2022/03/22 00:08:00;;;;;;;20.48;12.98;;;;;;;-1.40;60.50;94476.69;5011925;28;20395;-84
2022/03/22 00:10:28;;;;;;;26.67;16.52;;;;;;;-1.55;62.77;94476.81;5011725;28;20049;-84
2022/03/22 00:12:55;;;;;;;23.98;13.00;;;;;;;-1.65;62.10;94464.06;5012100;28;20061;-84
2022/03/22 00:15:22;;;;;;;21.42;12.93;;;;;;;-1.59;61.58;94475.41;5012224;28;20046;-84
2022/03/22 00:17:50;;;;;;;20.60;12.55;;;;;;;-1.52;60.95;94476.59;5011663;28;20498;-84
2022/03/22 00:20:17;;;;;;;32.58;18.17;;;;;;;-1.84;64.46;94476.25;5011791;28;20049;-84
2022/03/22 00:22:44;;;;;;;42.63;24.38;;;;;;;-2.11;67.74;94457.03;5011202;28;20046;-84
2022/03/22 00:25:12;;;;;;;59.25;32.97;;;;;;;-2.29;68.45;94467.41;5011697;28;20056;-84
2022/03/22 00:27:52;;;;;;;64.43;34.08;;;;;;;-2.64;70.24;94466.22;5010449;28;20060;-84
2022/03/22 00:30:19;;;;;;;61.95;32.97;;;;;;;-2.66;72.69;94475.59;5011350;28;20089;-84
2022/03/22 00:32:47;;;;;;;70.93;35.60;;;;;;;-2.79;73.19;94472.25;5011412;28;20050;-84
2022/03/22 00:35:18;;;;;;;64.47;36.03;;;;;;;-2.89;73.65;94467.78;5011495;28;20065;-84
2022/03/22 00:37:46;;;;;;;61.25;34.70;;;;;;;-3.02;74.20;94470.25;5011121;28;20045;-84
2022/03/22 00:40:14;;;;;;;71.10;36.80;;;;;;;-3.05;74.30;94472.16;5011211;28;20096;-84
2022/03/22 00:42:41;;;;;;;63.55;32.22;;;;;;;-3.02;74.74;94474.50;5011007;28;20562;-84
2022/03/22 00:45:10;;;;;;;78.65;31.70;;;;;;;-2.97;75.58;94469.97;5011042;28;20112;-83
2022/03/22 00:47:37;;;;;;;70.75;30.00;;;;;;;-2.90;74.49;94472.91;5011082;28;20060;-84
2022/03/22 00:50:04;;;;;;;82.70;33.78;;;;;;;-2.82;75.64;94480.78;5011138;28;20582;-84
2022/03/22 00:52:35;;;;;;;69.68;32.47;;;;;;;-2.79;74.51;94464.69;5011146;28;20046;-84
2022/03/22 00:55:04;;;;;;;70.55;30.08;;;;;;;-2.78;74.70;94471.34;5010973;28;20096;-84
2022/03/22 00:57:31;;;;;;;68.32;29.33;;;;;;;-2.69;74.73;94470.75;5011324;28;20074;-84
2022/03/22 01:00:04;;;;;;;80.95;33.30;;;;;;;-2.51;73.66;94470.50;5010831;28;20478;-83
2022/03/22 01:02:35;;;;;;;69.00;31.30;;;;;;;-2.40;72.66;94462.25;5011177;28;20057;-84
2022/03/22 01:05:04;;;;;;;66.97;32.22;;;;;;;-2.36;71.78;94461.94;5010998;28;20054;-84
2022/03/22 01:07:34;;;;;;;73.35;30.30;;;;;;;-2.30;71.76;94468.31;5010782;28;20142;-84
2022/03/22 01:10:02;;;;;;;73.57;30.30;;;;;;;-2.47;71.84;94447.56;5010972;28;20050;-84
2022/03/22 01:12:29;;;;;;;72.75;32.45;;;;;;;-2.40;71.83;94460.56;5011107;28;20217;-84
2022/03/22 01:14:57;;;;;;;75.88;34.08;;;;;;;-2.34;72.28;94460.16;5010920;28;20050;-84
2022/03/22 01:17:23;;;;;;;67.40;30.63;;;;;;;-2.35;71.52;94455.22;5010967;28;20049;-84
2022/03/22 01:19:50;;;;;;;62.33;30.38;;;;;;;-2.27;69.78;94447.94;5010905;28;20057;-84
2022/03/22 01:22:17;;;;;;;55.13;26.70;;;;;;;-2.30;69.32;94445.66;5010677;28;20050;-84
2022/03/22 01:24:45;;;;;;;54.63;27.88;;;;;;;-2.33;69.67;94449.16;5010977;28;20414;-84
2022/03/22 01:27:13;;;;;;;69.60;30.67;;;;;;;-2.46;70.71;94458.44;5010584;28;20069;-84
2022/03/22 01:29:39;;;;;;;63.00;29.65;;;;;;;-2.59;71.54;94430.75;5010829;28;20046;-84
2022/03/22 01:32:07;;;;;;;66.20;31.08;;;;;;;-2.44;71.26;94446.53;5010898;28;20426;-84
2022/03/22 01:34:34;;;;;;;65.78;30.20;;;;;;;-2.43;71.18;94436.38;5010807;28;20046;-84
2022/03/22 01:37:01;;;;;;;56.78;30.30;;;;;;;-2.37;70.41;94442.72;5010856;28;20129;-84
2022/03/22 01:39:28;;;;;;;62.38;30.45;;;;;;;-2.32;69.88;94440.72;5012536;28;20050;-84
2022/03/22 01:41:57;;;;;;;56.53;29.05;;;;;;;-2.26;69.47;94443.72;5014453;28;20545;-84
2022/03/22 01:44:24;;;;;;;58.47;29.25;;;;;;;-2.48;70.94;94442.59;5018676;28;20049;-84
2022/03/22 01:46:55;;;;;;;58.97;28.23;;;;;;;-2.42;70.27;94445.53;5021637;28;20494;-84
2022/03/22 03:48:46;;;;;;;55.67;26.83;;;;;;;-3.76;79.06;94436.16;5030258;28;20434;-79
2022/03/22 03:51:13;;;;;;;46.58;26.10;;;;;;;-3.75;78.90;94431.94;5029204;28;20053;-77
2022/03/22 03:53:40;;;;;;;52.85;27.27;;;;;;;-3.87;79.26;94436.00;5030119;28;20072;-77
2022/03/22 03:56:07;;;;;;;62.08;27.90;;;;;;;-3.89;78.67;94421.00;5030184;28;20049;-77
2022/03/22 03:58:34;;;;;;;59.55;28.65;;;;;;;-3.81;79.83;94432.28;5030306;28;20050;-77
2022/03/22 04:01:02;;;;;;;54.53;25.55;;;;;;;-3.89;79.90;94436.06;5030055;28;20049;-77
2022/03/22 04:03:29;;;;;;;50.33;25.33;;;;;;;-3.80;77.93;94428.91;5029835;28;20045;-77
2022/03/22 04:05:55;;;;;;;53.10;28.13;;;;;;;-3.73;76.92;94432.66;5030298;28;20057;-77
2022/03/22 04:08:22;;;;;;;60.40;29.83;;;;;;;-3.77;77.19;94427.00;5030332;28;20053;-77
2022/03/22 04:10:50;;;;;;;58.72;27.50;;;;;;;-3.73;76.76;94429.31;5030079;28;20505;-77
2022/03/22 04:13:16;;;;;;;56.55;29.27;;;;;;;-3.65;76.92;94438.00;5029930;28;20046;-77
2022/03/22 04:15:43;;;;;;;52.05;25.98;;;;;;;-3.67;76.40;94442.31;5029872;28;20056;-77
2022/03/22 04:18:12;;;;;;;45.65;24.13;;;;;;;-3.68;76.68;94447.44;5029956;28;20490;-76
2022/03/22 04:20:39;;;;;;;40.88;20.73;;;;;;;-3.83;75.62;94427.38;5030105;28;20033;-77
2022/03/22 04:23:05;;;;;;;44.55;19.80;;;;;;;-3.84;76.16;94420.72;5030071;28;20049;-77
2022/03/22 04:25:32;;;;;;;38.28;18.48;;;;;;;-3.74;76.62;94446.09;5029496;28;20056;-77
2022/03/22 04:33:29;;;;;;;47.03;20.88;;;;;;;-4.08;76.83;94400.41;5029703;28;20064;-78
2022/03/22 04:35:56;;;;;;;39.00;19.38;;;;;;;-3.83;76.88;94444.13;5029494;28;20137;-76
2022/03/22 04:38:22;;;;;;;39.95;20.63;;;;;;;-3.84;77.17;94433.28;5029902;28;20049;-76
2022/03/22 04:40:50;;;;;;;39.70;18.73;;;;;;;-3.93;76.86;94426.31;5026912;28;20049;-76
2022/03/22 04:43:16;;;;;;;43.88;20.67;;;;;;;-3.92;77.28;94445.50;5028102;28;20136;-76
2022/03/22 04:45:44;;;;;;;42.83;20.52;;;;;;;-3.99;78.81;94431.69;5028563;28;20413;-76
2022/03/22 04:48:10;;;;;;;50.33;22.98;;;;;;;-4.03;78.87;94429.34;5018044;28;20053;-77
2022/03/22 04:50:39;;;;;;;44.13;21.45;;;;;;;-3.95;78.62;94431.41;5029037;28;20045;-77
2022/03/22 04:58:34;;;;;;;80.07;38.30;;;;;;;-4.23;81.02;94422.19;5029185;28;20154;-78
2022/03/22 05:01:01;;;;;;;77.53;36.47;;;;;;;-4.18;80.94;94428.56;5029156;28;20084;-78
2022/03/22 05:03:28;;;;;;;73.95;38.15;;;;;;;-4.20;81.05;94409.47;5029188;28;20063;-78
2022/03/22 05:08:40;;;;;;;75.07;40.05;;;;;;;-3.88;78.97;94434.38;5028493;28;20052;-79
2022/03/22 05:11:07;;;;;;;83.07;41.33;;;;;;;-3.79;78.47;94430.50;5028514;28;20051;-79
2022/03/22 05:13:34;;;;;;;86.72;41.53;;;;;;;-3.70;78.84;94434.19;5028462;28;20477;-79
2022/03/22 05:16:01;;;;;;;83.10;41.45;;;;;;;-3.66;78.42;94426.34;5028672;28;20052;-79
2022/03/22 05:18:28;;;;;;;71.97;39.00;;;;;;;-3.57;78.26;94421.69;5028978;28;20073;-78
2022/03/22 05:20:56;;;;;;;71.07;40.10;;;;;;;-3.63;79.00;94430.38;5029455;28;20140;-78
2022/03/22 05:23:23;;;;;;;86.07;46.25;;;;;;;-3.63;79.08;94431.22;5029364;28;20095;-78
2022/03/22 05:25:50;;;;;;;85.03;40.13;;;;;;;-3.58;78.62;94420.06;5028685;28;20485;-78
2022/03/22 05:28:17;;;;;;;80.30;41.63;;;;;;;-3.53;79.05;94421.41;5028820;28;20056;-78
2022/03/22 05:30:44;;;;;;;85.15;43.20;;;;;;;-3.77;79.70;94414.47;5028725;28;20419;-78
2022/03/22 05:33:10;;;;;;;83.80;44.60;;;;;;;-3.71;82.79;94442.59;5028649;28;20045;-78
2022/03/22 05:35:37;;;;;;;81.03;41.15;;;;;;;-3.62;80.49;94424.47;5028532;28;20049;-78
2022/03/22 05:38:05;;;;;;;78.65;42.15;;;;;;;-3.63;83.27;94403.56;5028490;28;20387;-78
2022/03/22 05:40:33;;;;;;;74.95;38.83;;;;;;;-3.35;82.04;94421.16;5028879;28;20041;-79
2022/03/22 05:43:00;;;;;;;58.42;33.60;;;;;;;-3.46;83.62;94394.22;5028676;28;20052;-79
2022/03/22 05:45:27;;;;;;;48.58;26.83;;;;;;;-3.23;83.84;94422.13;5028332;28;20049;-78
2022/03/22 05:47:54;;;;;;;45.15;23.92;;;;;;;-3.05;79.72;94422.69;5025682;28;20049;-78
2022/03/22 05:50:21;;;;;;;62.65;28.75;;;;;;;-3.29;82.33;94394.88;5028573;28;20464;-78
2022/03/22 05:52:49;;;;;;;68.18;32.85;;;;;;;-3.03;81.56;94418.38;5028358;28;20087;-78
2022/03/22 05:55:17;;;;;;;60.88;32.63;;;;;;;-2.95;83.53;94422.91;5028078;28;20041;-78
2022/03/22 05:57:45;;;;;;;64.57;35.03;;;;;;;-2.85;82.31;94420.63;5028224;28;20037;-79
2022/03/22 06:00:13;;;;;;;139.52;63.83;;;;;;;-2.87;80.63;94398.09;5024591;28;20042;-79
2022/03/22 06:02:41;;;;;;;130.77;60.75;;;;;;;-2.50;78.83;94411.72;5027059;28;20060;-78
2022/03/22 06:05:11;;;;;;;104.07;44.15;;;;;;;-2.27;78.54;94417.75;5028280;28;20088;-78
2022/03/22 06:07:38;;;;;;;80.68;36.88;;;;;;;-2.13;78.29;94404.25;5027874;28;20049;-79
2022/03/22 06:10:07;;;;;;;80.88;33.95;;;;;;;-1.83;77.04;94399.78;5027321;28;20052;-80
2022/03/22 06:12:39;;;;;;;85.40;33.20;;;;;;;-1.28;75.07;94407.78;5025102;28;20045;-80
2022/03/22 06:15:17;;;;;;;94.47;33.35;;;;;;;-0.91;74.30;94411.16;5028093;28;20052;-81
2022/03/22 06:17:48;;;;;;;95.93;31.45;;;;;;;-0.85;70.49;94367.81;5027102;28;20041;-81
2022/03/22 06:20:15;;;;;;;94.47;31.45;;;;;;;-0.81;69.53;94343.97;5025940;28;20410;-82
2022/03/22 06:22:42;;;;;;;81.38;27.45;;;;;;;-1.01;69.63;94287.41;5028395;28;20530;-82
2022/03/22 06:25:16;;;;;;;81.60;24.90;;;;;;;-0.39;66.18;94355.28;5028614;28;20620;-84
2022/03/22 06:27:52;;;;;;;143.95;67.13;;;;;;;0.04;66.30;94389.94;5031644;28;20487;-84
2022/03/22 06:30:25;;;;;;;65.63;34.65;;;;;;;-0.11;65.36;94338.88;5030124;28;20042;-84
2022/03/22 06:33:00;;;;;;;71.65;34.83;;;;;;;0.46;65.36;94386.78;5031749;28;20045;-84
2022/03/22 06:35:32;;;;;;;52.97;25.90;;;;;;;0.49;63.37;94363.00;5031700;28;20057;-83
2022/03/22 06:38:07;;;;;;;50.08;27.02;;;;;;;0.48;63.85;94333.59;5031789;28;20045;-83
2022/03/22 06:40:35;;;;;;;49.70;20.98;;;;;;;0.72;62.04;94305.59;5028795;28;20501;-83
2022/03/22 06:43:04;;;;;;;39.97;19.17;;;;;;;1.02;58.64;94318.44;5032073;28;20038;-82
2022/03/22 06:45:31;;;;;;;53.30;28.23;;;;;;;1.43;60.21;94316.81;5031512;28;20045;-82
2022/03/22 06:48:00;;;;;;;46.13;26.42;;;;;;;2.25;55.40;94381.91;5030860;28;20049;-83
2022/03/22 06:50:26;;;;;;;36.00;18.77;;;;;;;2.73;52.64;94388.03;5031266;28;20050;-81
2022/03/22 06:52:54;;;;;;;18.80;10.25;;;;;;;2.82;46.14;94372.94;5028516;28;20045;-80
2022/03/22 06:55:22;;;;;;;22.35;12.60;;;;;;;2.97;49.06;94325.13;5031126;28;20042;-82
2022/03/22 06:57:51;;;;;;;17.50;10.43;;;;;;;3.14;44.89;94326.19;5030803;28;20056;-82
2022/03/22 07:00:20;;;;;;;40.05;14.18;;;;;;;3.29;45.57;94317.19;5031141;28;20099;-82
2022/03/22 07:02:49;;;;;;;56.15;18.55;;;;;;;3.79;48.74;94329.78;5030738;28;20106;-82
2022/03/22 07:05:17;;;;;;;47.42;16.30;;;;;;;4.24;45.95;94341.75;5028732;28;20133;-82
2022/03/22 07:07:44;;;;;;;38.50;16.38;;;;;;;4.38;45.88;94315.00;5030491;28;20572;-82
2022/03/22 07:10:12;;;;;;;34.47;13.68;;;;;;;4.79;45.07;94336.69;5031415;28;20045;-81
2022/03/22 07:12:51;;;;;;;24.52;12.73;;;;;;;5.15;43.93;94351.97;5031056;28;20053;-81
2022/03/22 07:15:23;;;;;;;34.60;13.90;;;;;;;4.86;42.38;94364.94;5028799;28;20047;-81
2022/03/22 07:17:52;;;;;;;28.10;12.43;;;;;;;4.95;42.93;94311.38;5030617;28;20049;-81
2022/03/22 07:20:19;;;;;;;20.83;11.23;;;;;;;5.25;42.23;94325.59;5030653;28;20053;-82
2022/03/22 07:22:47;;;;;;;19.52;10.50;;;;;;;5.13;40.97;94346.19;5030668;28;20045;-81
2022/03/22 07:25:14;;;;;;;20.67;10.95;;;;;;;4.43;40.40;94273.09;5027941;28;20041;-81
2022/03/22 07:27:41;;;;;;;18.02;10.35;;;;;;;4.66;40.15;94363.31;5030668;28;20041;-81
2022/03/22 07:30:10;;;;;;;18.45;10.77;;;;;;;4.94;41.43;94364.97;5030307;28;20057;-81
2022/03/22 07:32:39;;;;;;;19.23;10.27;;;;;;;4.93;40.92;94350.66;5028001;28;20124;-82
2022/03/22 07:35:08;;;;;;;18.40;10.05;;;;;;;5.03;40.25;94361.56;5031022;28;20038;-81
2022/03/22 07:37:35;;;;;;;18.88;11.38;;;;;;;4.76;40.57;94330.16;5027549;28;20164;-81
2022/03/22 07:40:03;;;;;;;19.73;11.52;;;;;;;5.14;41.35;94352.88;5030656;28;20053;-81
2022/03/22 07:42:31;;;;;;;17.48;10.93;;;;;;;5.15;40.86;94354.50;5030488;28;20050;-81
2022/03/22 07:45:00;;;;;;;17.80;10.73;;;;;;;5.10;41.11;94322.78;5030777;28;20055;-81
2022/03/22 07:47:28;;;;;;;27.23;15.57;;;;;;;5.41;41.55;94358.81;5030399;28;20137;-82
2022/03/22 07:53:01;;;;;;;15.70;10.45;;;;;;;5.70;41.49;94350.06;5027989;28;20131;-82
2022/03/22 07:55:29;;;;;;;14.93;9.43;;;;;;;5.28;41.79;94262.41;5030084;28;20069;-82
2022/03/22 07:57:57;;;;;;;19.58;11.18;;;;;;;5.27;40.87;94273.53;5030331;28;20143;-81
2022/03/22 08:00:24;;;;;;;15.55;10.35;;;;;;;5.86;41.11;94323.06;5029619;28;20049;-82
2022/03/22 08:02:53;;;;;;;19.60;10.50;;;;;;;5.61;41.49;94282.19;5029829;28;20045;-82
2022/03/22 08:05:21;;;;;;;14.75;9.45;;;;;;;5.75;41.33;94281.59;5029786;28;20053;-83
2022/03/22 08:07:48;;;;;;;16.08;9.30;;;;;;;5.92;40.56;94308.91;5029588;28;20136;-81
2022/03/22 08:10:15;;;;;;;17.58;10.63;;;;;;;5.74;41.36;94286.84;5029537;28;20087;-81
2022/03/22 08:12:43;;;;;;;17.02;10.15;;;;;;;6.09;42.20;94318.25;5029467;28;20069;-81
2022/03/22 08:15:11;;;;;;;16.05;9.02;;;;;;;5.84;42.27;94302.03;5029486;28;20067;-82
2022/03/22 08:17:39;;;;;;;14.82;9.00;;;;;;;5.82;42.39;94258.84;5029299;28;20053;-82
2022/03/22 08:20:08;;;;;;;14.38;9.02;;;;;;;6.31;42.03;94310.19;5029655;28;20049;-81
2022/03/22 08:22:50;;;;;;;14.85;9.27;;;;;;;6.40;42.34;94322.81;5026709;28;20054;-81
2022/03/22 08:25:19;;;;;;;17.98;9.93;;;;;;;6.51;42.02;94311.50;5029364;28;20080;-81
2022/03/22 08:27:46;;;;;;;15.95;9.02;;;;;;;6.53;41.47;94273.06;5029566;28;20060;-82
2022/03/22 08:30:13;;;;;;;16.95;9.27;;;;;;;6.84;40.37;94315.84;5029427;28;20045;-82
2022/03/22 08:32:42;;;;;;;19.45;9.13;;;;;;;6.71;40.84;94256.81;5029429;28;20056;-83
2022/03/22 08:35:10;;;;;;;16.17;9.55;;;;;;;7.18;40.30;94311.56;5029362;28;20103;-82
2022/03/22 08:37:38;;;;;;;20.20;9.57;;;;;;;6.46;41.02;94274.63;5029264;28;20052;-82
2022/03/22 08:40:07;;;;;;;18.33;10.20;;;;;;;6.33;42.13;94268.25;5029367;28;20123;-82
2022/03/22 08:42:34;;;;;;;13.88;8.75;;;;;;;6.21;42.57;94264.41;5026479;28;20075;-83
2022/03/22 08:45:03;;;;;;;15.15;8.50;;;;;;;6.50;42.70;94316.78;5030575;28;20487;-82
2022/03/22 08:47:32;;;;;;;15.93;9.48;;;;;;;6.49;43.63;94315.97;5033024;28;20060;-80
2022/03/22 08:49:59;;;;;;;17.92;11.10;;;;;;;6.46;44.39;94318.03;5029106;28;20461;-81
2022/03/22 08:52:26;;;;;;;21.25;10.98;;;;;;;6.21;45.15;94287.34;5029291;28;20446;-81
2022/03/22 08:54:53;;;;;;;14.05;9.65;;;;;;;6.01;44.88;94239.13;5028805;28;20057;-83
2022/03/22 08:57:22;;;;;;;16.92;10.23;;;;;;;6.07;46.35;94289.53;5029737;28;20056;-82
2022/03/22 08:59:49;;;;;;;17.23;9.48;;;;;;;6.09;46.72;94290.19;5029674;28;20057;-81
2022/03/22 09:02:16;;;;;;;15.52;9.70;;;;;;;5.75;46.67;94245.13;5029439;28;20124;-81
2022/03/22 09:07:27;;;;;;;18.40;10.90;;;;;;;6.26;46.27;94273.16;5028539;28;20057;-81
2022/03/22 09:09:54;;;;;;;17.67;9.40;;;;;;;6.68;46.90;94319.19;5026659;28;20057;-81
2022/03/22 09:12:22;;;;;;;17.25;9.35;;;;;;;6.62;46.10;94307.06;5029373;28;20045;-81
2022/03/22 09:14:51;;;;;;;16.90;9.85;;;;;;;6.68;45.92;94312.31;5029521;28;20045;-81
2022/03/22 09:17:18;;;;;;;17.17;9.25;;;;;;;6.35;47.39;94283.41;5029183;28;20413;-82
2022/03/22 09:19:45;;;;;;;19.40;10.82;;;;;;;6.25;46.55;94235.06;5029265;28;20084;-81
2022/03/22 09:22:14;;;;;;;16.63;10.43;;;;;;;6.67;46.53;94292.06;5029507;28;20168;-82
2022/03/22 09:24:41;;;;;;;16.50;9.57;;;;;;;6.22;45.42;94222.63;5028507;28;20380;-83
2022/03/22 09:27:08;;;;;;;16.48;9.80;;;;;;;6.74;46.24;94262.38;5029377;28;20053;-82
2022/03/22 09:29:36;;;;;;;17.70;10.00;;;;;;;6.28;47.39;94296.78;5026211;28;20051;-81
2022/03/22 09:32:03;;;;;;;24.65;17.45;;;;;;;6.24;47.01;94254.69;5028506;28;20048;-81
2022/03/22 09:34:32;;;;;;;52.55;47.05;;;;;;;6.53;47.10;94304.47;5028559;28;20060;-81
2022/03/22 09:36:59;;;;;;;33.38;26.83;;;;;;;6.45;48.01;94267.94;5028207;28;20072;-81
2022/03/22 09:39:26;;;;;;;17.88;10.60;;;;;;;5.69;49.88;94258.47;5025887;28;20085;-81
2022/03/22 09:41:53;;;;;;;13.30;8.95;;;;;;;5.99;50.93;94282.66;5026540;28;20049;-81
2022/03/22 09:44:23;;;;;;;17.00;10.25;;;;;;;6.41;50.70;94282.78;5027617;28;20494;-81
2022/03/22 09:46:51;;;;;;;17.77;11.10;;;;;;;6.05;51.63;94272.78;5028303;28;20076;-81
2022/03/22 09:49:18;;;;;;;16.27;9.43;;;;;;;6.33;50.82;94275.91;5028080;28;20546;-81
2022/03/22 09:51:44;;;;;;;13.20;8.55;;;;;;;6.19;51.95;94274.75;5028338;28;20050;-81
2022/03/22 09:54:12;;;;;;;19.15;11.30;;;;;;;6.44;52.19;94243.38;5028051;28;20756;-81
2022/03/22 09:56:39;;;;;;;16.63;8.85;;;;;;;6.40;51.87;94217.38;5028241;28;20494;-83
2022/03/22 09:59:06;;;;;;;20.92;10.45;;;;;;;6.07;53.17;94219.88;5028229;28;20520;-82
2022/03/22 10:01:34;;;;;;;17.20;8.27;;;;;;;6.32;53.10;94258.19;5031500;28;20051;-81
2022/03/22 10:04:04;;;;;;;13.10;9.23;;;;;;;6.13;54.22;94268.53;5032089;28;20041;-81
2022/03/22 10:06:32;;;;;;;16.58;8.85;;;;;;;6.26;54.43;94234.09;5032052;28;20052;-81
2022/03/22 10:08:59;;;;;;;13.07;7.65;;;;;;;6.97;53.44;94269.41;5032441;28;20045;-83
2022/03/22 10:11:36;;;;;;;53.72;22.83;;;;;;;6.47;53.62;94220.88;5032751;28;20068;-81
2022/03/22 10:14:03;;;;;;;79.25;26.40;;;;;;;6.39;54.14;94219.13;5030723;28;20053;-82
2022/03/22 10:16:30;;;;;;;114.15;39.65;;;;;;;6.06;55.06;94231.81;5031899;28;20045;-83
2022/03/22 10:18:57;;;;;;;33.20;14.57;;;;;;;6.09;55.84;94211.13;5032037;28;20050;-82
2022/03/22 10:21:26;;;;;;;11.20;6.38;;;;;;;6.21;56.07;94191.19;5031729;28;20041;-82
2022/03/22 10:23:54;;;;;;;11.43;6.90;;;;;;;6.81;54.53;94249.78;5031719;28;20061;-82
2022/03/22 10:26:31;;;;;;;17.17;7.20;;;;;;;6.71;54.07;94201.41;5032353;28;20073;-82
2022/03/22 10:28:58;;;;;;;11.73;7.68;;;;;;;6.80;53.38;94197.09;5029909;28;20057;-82
2022/03/22 10:31:34;;;;;;;13.98;7.68;;;;;;;7.13;53.18;94250.69;5031842;28;20560;-83
2022/03/22 10:34:01;;;;;;;13.50;7.75;;;;;;;6.84;52.89;94200.16;5029531;28;20046;-83
2022/03/22 10:36:33;;;;;;;10.70;7.25;;;;;;;6.86;52.54;94181.16;5031198;28;20046;-82
2022/03/22 10:39:02;;;;;;;15.13;7.78;;;;;;;6.87;52.59;94164.06;5032106;28;20064;-82
2022/03/22 10:41:35;;;;;;;11.88;6.35;;;;;;;7.71;51.32;94230.09;5031794;28;20392;-82
2022/03/22 10:44:07;;;;;;;11.00;6.40;;;;;;;7.05;51.45;94182.53;5032230;28;20045;-83
2022/03/22 10:46:36;;;;;;;11.98;7.63;;;;;;;7.38;51.43;94173.16;5031537;28;20057;-83
2022/03/22 10:49:06;;;;;;;15.20;7.85;;;;;;;7.84;50.39;94200.63;5032064;28;20096;-82
2022/03/22 10:51:36;;;;;;;11.93;5.85;;;;;;;7.93;49.96;94235.44;5031835;28;20107;-82
2022/03/22 10:54:04;;;;;;;11.55;6.38;;;;;;;7.78;50.17;94175.72;5032103;28;20149;-83
2022/03/22 10:56:31;;;;;;;12.48;6.97;;;;;;;7.98;49.28;94194.00;5031098;28;20423;-82
2022/03/22 10:59:00;;;;;;;14.50;7.20;;;;;;;7.73;49.84;94143.75;5031503;28;20453;-83
2022/03/22 11:01:28;;;;;;;12.98;7.20;;;;;;;7.78;49.79;94162.94;5031482;28;20067;-83
2022/03/22 11:03:58;;;;;;;15.55;8.13;;;;;;;8.00;48.93;94134.00;5031858;28;20410;-83
2022/03/22 11:06:31;;;;;;;14.50;7.95;;;;;;;7.76;49.63;94160.53;5032125;28;20045;-83
2022/03/22 11:09:01;;;;;;;12.52;7.25;;;;;;;8.24;49.54;94180.88;5031823;28;20100;-83
2022/03/22 11:11:31;;;;;;;13.18;7.47;;;;;;;7.96;49.62;94226.63;5031287;28;20052;-84
2022/03/22 11:13:58;;;;;;;11.45;7.40;;;;;;;8.16;49.82;94207.31;5031886;28;20053;-83
2022/03/22 11:16:28;;;;;;;14.07;8.15;;;;;;;8.24;49.48;94175.75;5032003;28;20059;-83
2022/03/22 11:18:58;;;;;;;16.27;7.75;;;;;;;8.01;48.81;94122.03;5031917;28;20136;-83
2022/03/22 11:21:26;;;;;;;14.02;7.85;;;;;;;8.07;48.20;94139.25;5032008;28;20057;-83
2022/03/22 11:24:07;;;;;;;13.38;7.80;;;;;;;7.93;48.37;94107.53;5032025;28;20402;-83
2022/03/22 11:26:41;;;;;;;13.80;8.45;;;;;;;8.05;47.95;94110.47;5031517;28;20064;-83
2022/03/22 11:29:10;;;;;;;20.90;9.75;;;;;;;8.01;47.59;94106.69;5031846;28;20045;-83
2022/03/22 11:31:38;;;;;;;13.93;8.05;;;;;;;8.28;48.14;94107.09;5031762;28;20491;-83
2022/03/22 11:34:09;;;;;;;22.17;12.27;;;;;;;8.55;47.76;94128.81;5031575;28;20056;-83
2022/03/22 11:36:43;;;;;;;17.60;9.27;;;;;;;8.36;47.11;94096.78;5031322;28;20049;-83
2022/03/22 11:39:18;;;;;;;13.85;8.38;;;;;;;9.06;46.19;94096.59;5031618;28;20053;-83
2022/03/22 11:44:37;;;;;;;15.68;8.23;;;;;;;9.55;44.81;94152.59;5031804;28;20131;-84
2022/03/22 11:47:08;;;;;;;15.85;8.50;;;;;;;9.30;44.68;94145.22;5031017;28;20061;-83
2022/03/22 11:49:59;;;;;;;11.48;6.90;;;;;;;8.86;45.25;94082.72;5042999;28;20053;-83
2022/03/22 11:52:39;;;;;;;11.45;7.13;;;;;;;8.58;44.57;94068.78;5037057;28;20107;-84
2022/03/22 11:55:11;;;;;;;21.13;8.65;;;;;;;9.02;44.52;94081.78;5030562;28;20051;-83
2022/03/22 11:57:45;;;;;;;10.55;6.15;;;;;;;9.17;42.90;94082.53;5031017;28;20140;-84
2022/03/22 12:00:14;;;;;;;10.52;6.15;;;;;;;9.33;42.97;94106.38;5030462;28;20065;-83
2022/03/22 12:02:45;;;;;;;13.90;7.20;;;;;;;9.09;43.18;94046.75;5031079;28;20057;-83
2022/03/22 12:05:17;;;;;;;12.15;6.78;;;;;;;9.31;42.75;94065.53;5030963;28;20060;-83
2022/03/22 12:07:44;;;;;;;17.80;8.85;;;;;;;9.30;42.93;94058.03;5028304;28;20049;-84
2022/03/22 12:10:15;;;;;;;10.23;6.63;;;;;;;9.11;41.93;94036.34;5029293;28;20053;-84
2022/03/22 12:12:50;;;;;;;10.75;6.97;;;;;;;9.63;42.07;94114.81;5030122;28;20063;-84
2022/03/22 12:15:21;;;;;;;11.43;6.68;;;;;;;9.40;42.33;94066.22;5030408;28;20406;-83
2022/03/22 12:17:48;;;;;;;13.38;7.70;;;;;;;9.86;41.81;94129.25;5030897;28;20082;-83
2022/03/22 12:20:18;;;;;;;11.75;7.18;;;;;;;9.37;42.02;94123.00;5030258;28;20049;-83
2022/03/22 12:22:50;;;;;;;11.43;6.63;;;;;;;9.40;42.92;94101.34;5030575;28;20061;-84
2022/03/22 12:25:23;;;;;;;9.57;6.18;;;;;;;9.45;42.05;94038.25;5030473;28;20049;-84
2022/03/22 12:27:53;;;;;;;12.57;7.20;;;;;;;9.96;42.16;94069.13;5030574;28;20064;-84
2022/03/22 12:30:21;;;;;;;12.02;6.40;;;;;;;9.88;39.68;94005.91;5030380;28;20045;-84
2022/03/22 12:32:55;;;;;;;10.27;6.30;;;;;;;9.97;40.23;94025.34;5030420;28;20053;-83
2022/03/22 12:35:23;;;;;;;10.27;5.78;;;;;;;9.31;37.88;94011.69;5029755;28;20446;-83
2022/03/22 12:37:52;;;;;;;11.23;5.97;;;;;;;9.91;37.33;94061.19;5030027;28;20051;-82
2022/03/22 12:40:22;;;;;;;9.75;5.13;;;;;;;9.28;36.80;93978.75;5029637;28;20441;-82
2022/03/22 12:42:50;;;;;;;9.63;5.25;;;;;;;9.58;37.22;94011.97;5029971;28;20057;-84
2022/03/22 12:45:19;;;;;;;8.52;4.80;;;;;;;9.25;36.68;93993.69;5029927;28;20042;-84
2022/03/22 12:47:48;;;;;;;14.40;7.85;;;;;;;9.92;36.98;94042.25;5029828;28;20057;-84
2022/03/22 12:50:18;;;;;;;9.52;6.40;;;;;;;9.65;36.33;93983.81;5029701;28;20076;-84
2022/03/22 12:52:45;;;;;;;12.50;5.88;;;;;;;9.92;36.16;94048.19;5029770;28;20049;-83
2022/03/22 12:55:15;;;;;;;10.95;6.35;;;;;;;10.13;36.24;94075.59;5014123;28;20495;-84
2022/03/22 12:57:46;;;;;;;13.32;7.75;;;;;;;10.07;36.14;94057.56;5010257;28;20066;-83
2022/03/22 13:00:27;;;;;;;12.90;7.07;;;;;;;10.30;36.21;94062.50;5010452;28;20395;-85
2022/03/22 13:02:54;;;;;;;9.75;5.50;;;;;;;9.39;36.47;94026.16;5009830;28;20613;-83
2022/03/22 13:05:25;;;;;;;10.00;6.38;;;;;;;9.55;36.63;94035.41;5009787;28;20518;-84
2022/03/22 13:08:07;;;;;;;10.52;6.38;;;;;;;9.94;37.13;94046.22;5009937;28;20500;-85
2022/03/22 13:15:01;;;;;;;10.90;6.18;;;;;;;9.81;36.39;93980.19;5010015;28;20128;-84
2022/03/22 13:16:34;;;;;;;15.75;8.48;;;;;;;9.62;37.03;93977.28;5009743;28;20050;-86
2022/03/22 13:19:11;;;;;;;12.15;6.50;;;;;;;10.10;37.11;94034.88;5009043;28;20147;-85
2022/03/22 13:21:43;;;;;;;11.55;6.60;;;;;;;10.02;36.04;94060.69;5009076;28;20091;-84
2022/03/22 13:24:18;;;;;;;11.32;6.07;;;;;;;9.53;35.75;93973.22;5009818;28;20153;-85
2022/03/22 13:26:55;;;;;;;13.52;7.25;;;;;;;9.59;36.02;94049.44;5007910;28;20060;-87
2022/03/22 13:29:36;;;;;;;13.18;7.80;;;;;;;9.27;35.84;93994.28;5007066;28;20400;-85
2022/03/22 13:32:08;;;;;;;13.80;6.75;;;;;;;9.31;36.49;93990.41;5009547;28;20077;-84
2022/03/22 13:34:47;;;;;;;12.27;6.22;;;;;;;9.11;36.34;93990.19;5009347;28;20152;-85
2022/03/22 13:37:16;;;;;;;9.63;6.35;;;;;;;9.51;36.69;94029.06;5013359;28;20165;-83
2022/03/22 13:39:54;;;;;;;15.27;6.85;;;;;;;9.28;37.25;93991.56;5013658;28;20056;-85
2022/03/22 13:42:23;;;;;;;14.48;6.97;;;;;;;9.25;36.87;93961.16;5013440;28;20419;-83
2022/03/22 13:45:09;;;;;;;14.70;7.80;;;;;;;9.41;36.09;93979.84;5013997;28;20046;-86
2022/03/22 13:47:55;;;;;;;16.77;8.52;;;;;;;10.00;36.07;94037.00;5027351;28;20057;-87
2022/03/22 13:50:34;;;;;;;15.43;7.70;;;;;;;9.28;36.36;93967.69;5032922;28;20045;-86
2022/03/22 13:53:13;;;;;;;15.38;9.02;;;;;;;9.41;36.08;94016.53;5032557;28;20054;-88
2022/03/22 13:55:53;;;;;;;12.43;8.05;;;;;;;9.07;36.04;93969.25;5032878;28;20049;-88
2022/03/22 13:58:33;;;;;;;12.45;6.88;;;;;;;9.18;36.51;93986.72;5032616;28;20418;-86